San Fermin Berria — EBVW — position and weather

sailwx.info

Track history (hours):
 
Tides and Currents Weather Stations Pressure Air Temp Water Temp Dewpoint Dewpoint Depression Visibility Wind Speed Wind Dir Waves Ship Positions

San Fermin Berria

Last reported at 2015-Jul-27 07:24 UTC. Time now 2015-Aug-03 23:23 UTC.
Position N 43°25' W 001°54'.

Length 30 m.

Type: Fishing. MMSI: 224114650.

Date/timePositionNaut miles runAvg speedWind from/ knotsBaromVisibWave heightAir tempDewpointWater temp
2015-Jul-27 07:24N 43°25' W 001°54'5 5.9
2015-Jul-27 06:33N 43°23' W 001°48'  
2015-Jul-24 17:33N 43°23' W 001°48'0 0.0
2015-Jul-24 16:33N 43°23' W 001°48'0 0.0
2015-Jul-24 15:33N 43°23' W 001°48'0 0.0
2015-Jul-24 14:33N 43°23' W 001°48'0 0.0
2015-Jul-24 13:33N 43°23' W 001°48'0 0.0
2015-Jul-24 12:34N 43°23' W 001°48'0 0.0
2015-Jul-24 11:33N 43°23' W 001°48'0 0.0
2015-Jul-24 10:33N 43°23' W 001°48'0 0.0
2015-Jul-24 09:33N 43°23' W 001°48'0 0.0
2015-Jul-24 08:34N 43°23' W 001°48'0 0.0
2015-Jul-24 07:33N 43°23' W 001°48'0 0.1
2015-Jul-24 06:34N 43°23' W 001°47'0 0.1
2015-Jul-24 05:33N 43°23' W 001°48'0 0.0
2015-Jul-24 04:33N 43°23' W 001°48'0 0.0
2015-Jul-24 03:34N 43°23' W 001°48'1 1.4
2015-Jul-24 02:33N 43°24' W 001°48'1010.4
2015-Jul-24 01:33N 43°30' W 002°00'1110.1
2015-Jul-24 00:30N 43°36' W 002°12'1010.2
2015-Jul-23 23:33N 43°42' W 002°23'  
2015-Jul-21 08:12N 43°52' W 005°31'7 9.8
2015-Jul-21 07:32N 43°46' W 005°36'10 9.3
2015-Jul-21 06:30N 43°37' W 005°41'4 4.2
2015-Jul-21 05:33N 43°33' W 005°42'0 0.2
2015-Jul-21 04:33N 43°33' W 005°42'0 0.0
2015-Jul-21 03:33N 43°33' W 005°42'0 0.0
2015-Jul-21 02:32N 43°33' W 005°42'0 0.0
2015-Jul-21 01:33N 43°33' W 005°42'0 0.0
2015-Jul-21 00:33N 43°33' W 005°42'1 1.4
2015-Jul-20 23:33N 43°34' W 005°40'  
Track history (hours):
 
Tides and Currents Weather Stations Pressure Air Temp Water Temp Dewpoint Dewpoint Depression Visibility Wind Speed Wind Dir Waves Ship Positions

San Fermin Berria

Last reported at 2015-Jul-27 07:24 UTC. Time now 2015-Aug-03 23:23 UTC.
Position N 43°25' W 001°54'.

Length 30 m.

Type: Fishing. MMSI: 224114650.

Date/timePositionNaut miles runAvg speedWind from/ knotsBaromVisibWave heightAir tempDewpointWater temp
2015-Jul-27 07:24N 43°25' W 001°54'5 5.9
2015-Jul-27 06:33N 43°23' W 001°48'  
2015-Jul-24 17:33N 43°23' W 001°48'0 0.0
2015-Jul-24 16:33N 43°23' W 001°48'0 0.0
2015-Jul-24 15:33N 43°23' W 001°48'0 0.0
2015-Jul-24 14:33N 43°23' W 001°48'0 0.0
2015-Jul-24 13:33N 43°23' W 001°48'0 0.0
2015-Jul-24 12:34N 43°23' W 001°48'0 0.0
2015-Jul-24 11:33N 43°23' W 001°48'0 0.0
2015-Jul-24 10:33N 43°23' W 001°48'0 0.0
2015-Jul-24 09:33N 43°23' W 001°48'0 0.0
2015-Jul-24 08:34N 43°23' W 001°48'0 0.0
2015-Jul-24 07:33N 43°23' W 001°48'0 0.1
2015-Jul-24 06:34N 43°23' W 001°47'0 0.1
2015-Jul-24 05:33N 43°23' W 001°48'0 0.0
2015-Jul-24 04:33N 43°23' W 001°48'0 0.0
2015-Jul-24 03:34N 43°23' W 001°48'1 1.4
2015-Jul-24 02:33N 43°24' W 001°48'1010.4
2015-Jul-24 01:33N 43°30' W 002°00'1110.1
2015-Jul-24 00:30N 43°36' W 002°12'1010.2
2015-Jul-23 23:33N 43°42' W 002°23'  
2015-Jul-21 08:12N 43°52' W 005°31'7 9.8
2015-Jul-21 07:32N 43°46' W 005°36'10 9.3
2015-Jul-21 06:30N 43°37' W 005°41'4 4.2
2015-Jul-21 05:33N 43°33' W 005°42'0 0.2
2015-Jul-21 04:33N 43°33' W 005°42'0 0.0
2015-Jul-21 03:33N 43°33' W 005°42'0 0.0
2015-Jul-21 02:32N 43°33' W 005°42'0 0.0
2015-Jul-21 01:33N 43°33' W 005°42'0 0.0
2015-Jul-21 00:33N 43°33' W 005°42'1 1.4
2015-Jul-20 23:33N 43°34' W 005°40'  

Dump ship's entire track history